Time;durP1;ratioP1;P1;durP2;ratioP2;P2;SDS_P1;SDS_P2;PMS_P1;PMS_P2;Temp;Humidity;BMP_temperature;BMP_pressure;BME280_temperature;BME280_humidity;BME280_pressure;Samples;Min_cycle;Max_cycle;Signal;HPM_P1;HPM_P2
2021/04/19 00:00:36;;;;;;;57.55;34.75;;;230.90;2252.80;;;;;;5008913;28;19906;-78
2021/04/19 00:03:02;;;;;;;;;;;230.90;2252.80;;;;;;5024680;28;20025;-78
2021/04/19 00:05:27;;;;;;;60.22;35.78;;;230.90;2252.80;;;;;;5025932;28;19912;-78
2021/04/19 00:07:53;;;;;;;;;;;230.90;2252.80;;;;;;5009530;28;20025;-77
2021/04/19 00:10:20;;;;;;;58.17;35.45;;;230.90;2252.80;;;;;;5024803;28;19912;-77
2021/04/19 00:12:47;;;;;;;59.13;37.88;;;230.90;2252.80;;;;;;5007928;28;20056;-78
2021/04/19 00:15:15;;;;;;;58.78;36.88;;;230.90;2252.80;;;;;;5022339;28;20037;-80
2021/04/19 00:17:41;;;;;;;60.30;38.80;;;230.90;2252.80;;;;;;5022639;28;20079;-79
2021/04/19 00:20:07;;;;;;;;;;;230.90;2252.80;;;;;;5025907;28;20018;-79
2021/04/19 00:22:34;;;;;;;60.25;36.13;;;230.90;2252.80;;;;;;5007786;28;19935;-78
2021/04/19 00:25:00;;;;;;;63.88;36.47;;;230.90;2252.80;;;;;;5024439;28;20096;-80
2021/04/19 00:27:26;;;;;;;58.25;36.72;;;230.80;2252.80;;;;;;5029261;28;20530;-79
2021/04/19 00:29:52;;;;;;;;;;;230.70;2252.80;;;;;;5011673;28;20048;-80
2021/04/19 00:32:17;;;;;;;60.22;37.83;;;230.60;2252.80;;;;;;5026407;28;19945;-77
2021/04/19 00:34:43;;;;;;;;;;;230.60;2252.80;;;;;;5021083;28;20018;-80
2021/04/19 00:37:09;;;;;;;59.95;37.00;;;230.60;2252.80;;;;;;5028614;28;19906;-77
2021/04/19 00:39:34;;;;;;;;;;;230.40;2252.80;;;;;;5022669;28;20483;-80
2021/04/19 00:42:00;;;;;;;60.33;36.50;;;205.70;2252.80;;;;;;5024543;28;19909;-76
2021/04/19 00:44:26;;;;;;;;;;;230.50;2252.80;;;;;;5026467;28;20049;-80
2021/04/19 00:46:52;;;;;;;59.17;36.72;;;230.50;2252.80;;;;;;5004881;28;19952;-77
2021/04/19 00:49:18;;;;;;;60.85;38.33;;;230.50;2252.80;;;;;;5006371;28;20438;-78
2021/04/19 00:51:44;;;;;;;;;;;230.40;2252.80;;;;;;5008446;28;20105;-79
2021/04/19 00:54:11;;;;;;;65.97;40.55;;;230.40;2252.80;;;;;;5022792;28;19968;-79
2021/04/19 00:56:38;;;;;;;62.20;39.90;;;205.70;2252.80;;;;;;5023153;28;20020;-79
2021/04/19 00:59:04;;;;;;;71.40;42.40;;;205.50;2252.80;;;;;;5027945;28;20038;-77
2021/04/19 01:01:33;;;;;;;;;;;205.50;2252.80;;;;;;5025606;28;20029;-80
2021/04/19 01:03:59;;;;;;;72.07;41.55;;;205.50;2252.80;;;;;;5028593;28;19905;-80
2021/04/19 01:06:25;;;;;;;71.13;42.55;;;205.50;2252.80;;;;;;5020431;28;20076;-80
2021/04/19 01:08:52;;;;;;;;;;;205.70;2252.80;;;;;;5007534;28;20025;-79
2021/04/19 01:11:18;;;;;;;64.45;40.05;;;230.40;2252.80;;;;;;5024352;28;20027;-78
2021/04/19 01:13:44;;;;;;;;;;;230.50;2252.80;;;;;;5025169;28;20053;-80
2021/04/19 01:16:09;;;;;;;65.35;39.88;;;230.60;2252.80;;;;;;5006971;28;20405;-79
2021/04/19 01:18:35;;;;;;;;;;;230.70;2252.80;;;;;;5024985;28;20087;-80
2021/04/19 01:21:01;;;;;;;63.58;38.08;;;230.60;2252.80;;;;;;5006906;28;19905;-78
2021/04/19 01:23:26;;;;;;;;;;;230.70;2252.80;;;;;;5006755;28;20049;-79
2021/04/19 01:25:52;;;;;;;69.95;39.85;;;230.70;2252.80;;;;;;5021921;28;20329;-78
2021/04/19 01:28:20;;;;;;;59.88;38.00;;;230.80;2252.80;;;;;;5022831;28;20026;-80
2021/04/19 01:30:49;;;;;;;63.45;40.85;;;230.90;2252.80;;;;;;5005464;28;20022;-80
2021/04/19 01:33:15;;;;;;;65.07;40.17;;;230.90;2252.80;;;;;;5021459;28;20033;-78
2021/04/19 01:35:42;;;;;;;65.18;40.00;;;230.90;2252.80;;;;;;5024189;28;20105;-80
2021/04/19 01:38:10;;;;;;;65.28;38.97;;;230.90;2252.80;;;;;;5024075;28;20051;-81
2021/04/19 01:40:36;;;;;;;69.22;40.38;;;231.00;2252.80;;;;;;5019280;28;20017;-81
2021/04/19 01:43:02;;;;;;;63.05;40.17;;;231.00;2252.80;;;;;;5022351;28;20365;-79
2021/04/19 01:45:28;;;;;;;60.67;40.35;;;231.00;2252.80;;;;;;5021851;28;20041;-78
2021/04/19 01:47:56;;;;;;;55.58;37.35;;;230.90;2252.80;;;;;;5023176;28;20029;-81
2021/04/19 01:50:23;;;;;;;64.18;38.72;;;230.90;2252.80;;;;;;5022351;28;20022;-79
2021/04/19 01:52:50;;;;;;;59.08;37.90;;;231.00;2252.80;;;;;;5006090;28;20014;-78
2021/04/19 01:55:18;;;;;;;60.13;36.70;;;231.10;2252.80;;;;;;5004156;28;20028;-79
2021/04/19 01:58:06;;;;;;;59.25;37.63;;;231.10;2252.80;;;;;;5024846;28;20026;-79
2021/04/19 02:00:35;;;;;;;52.45;36.60;;;231.20;2252.80;;;;;;5021924;28;20025;-79
2021/04/19 02:03:14;;;;;;;62.92;39.50;;;231.10;2252.80;;;;;;5022618;28;20029;-78
2021/04/19 02:06:07;;;;;;;60.47;40.38;;;230.90;2252.80;;;;;;5022322;28;20021;-80
2021/04/19 02:08:55;;;;;;;61.85;39.15;;;230.80;2252.80;;;;;;5017595;28;20462;-78
2021/04/19 02:11:41;;;;;;;59.17;37.55;;;230.90;2252.80;;;;;;5022140;28;20032;-77
2021/04/19 02:14:27;;;;;;;56.58;36.10;;;230.90;2252.80;;;;;;5020605;28;20018;-80
2021/04/19 02:17:08;;;;;;;60.65;37.38;;;231.00;2252.80;;;;;;5021173;28;20037;-77
2021/04/19 02:19:53;;;;;;;61.15;37.22;;;230.90;2252.80;;;;;;5024107;28;20026;-77
2021/04/19 02:22:36;;;;;;;57.40;36.08;;;230.90;2252.80;;;;;;5021767;28;20021;-79
2021/04/19 02:25:26;;;;;;;55.03;34.60;;;230.90;2252.80;;;;;;5021943;28;20022;-80
2021/04/19 02:28:00;;;;;;;58.42;37.88;;;230.60;2252.80;;;;;;4927489;29;20638;-77
2021/04/19 02:30:32;;;;;;;56.15;36.08;;;230.50;2252.80;;;;;;4927429;29;20536;-76
2021/04/19 02:32:59;;;;;;;57.30;35.90;;;230.60;2252.80;;;;;;4940619;29;20032;-79
2021/04/19 02:35:26;;;;;;;59.85;37.85;;;230.80;2252.80;;;;;;4942371;29;20031;-77
2021/04/19 02:37:57;;;;;;;50.42;35.22;;;230.80;2252.80;;;;;;4941528;29;20126;-78
2021/04/19 02:40:25;;;;;;;55.05;35.50;;;230.90;2252.80;;;;;;4943898;29;20124;-79
2021/04/19 02:42:52;;;;;;;55.83;35.33;;;230.90;2252.80;;;;;;4941430;29;20023;-79
2021/04/19 02:45:21;;;;;;;58.10;36.25;;;230.80;2252.80;;;;;;4937523;29;20456;-76
2021/04/19 02:47:48;;;;;;;54.05;35.78;;;230.90;2252.80;;;;;;4929194;29;20042;-79
2021/04/19 02:50:16;;;;;;;51.72;32.03;;;230.90;2252.80;;;;;;4938287;29;20107;-79
2021/04/19 02:52:44;;;;;;;50.38;34.10;;;230.90;2252.80;;;;;;4939687;29;20078;-79
2021/04/19 02:55:11;;;;;;;46.38;31.40;;;230.70;2252.80;;;;;;4940361;29;20073;-78
2021/04/19 02:57:47;;;;;;;49.95;33.58;;;230.90;2252.80;;;;;;4943206;29;20535;-80
2021/04/19 03:00:16;;;;;;;36.35;24.70;;;230.80;2252.80;;;;;;4943428;29;20106;-76
2021/04/19 03:02:43;;;;;;;51.80;32.53;;;230.80;2252.80;;;;;;4941155;29;20084;-77
2021/04/19 03:05:11;;;;;;;51.42;34.13;;;230.70;2252.80;;;;;;4986943;28;20026;-77
2021/04/19 03:08:00;;;;;;;50.17;33.47;;;230.70;2252.80;;;;;;5020322;28;20018;-76
2021/04/19 03:10:31;;;;;;;51.38;34.90;;;230.80;2252.80;;;;;;5019552;28;20112;-76
2021/04/19 03:12:59;;;;;;;51.85;33.95;;;230.60;2252.80;;;;;;5022536;28;20842;-77
2021/04/19 03:15:28;;;;;;;51.47;34.10;;;230.60;2252.80;;;;;;5020981;28;20050;-76
2021/04/19 03:17:57;;;;;;;54.08;34.67;;;205.70;2252.80;;;;;;5020316;28;20021;-77
2021/04/19 03:20:26;;;;;;;55.35;36.80;;;205.60;2252.80;;;;;;5023835;28;20112;-77
2021/04/19 03:22:54;;;;;;;59.05;39.28;;;205.60;2252.80;;;;;;5024430;28;20021;-77
2021/04/19 03:25:22;;;;;;;60.25;36.95;;;205.40;2252.80;;;;;;5023474;28;20784;-76
2021/04/19 03:27:50;;;;;;;62.90;38.78;;;205.60;2252.80;;;;;;5022903;28;20033;-76
2021/04/19 03:30:17;;;;;;;52.85;34.90;;;205.70;2252.80;;;;;;5026894;28;20033;-77
2021/04/19 03:32:49;;;;;;;59.92;36.03;;;205.70;2252.80;;;;;;5024631;28;20026;-77
2021/04/19 03:35:29;;;;;;;59.30;38.05;;;205.50;2252.80;;;;;;5024049;28;20017;-77
2021/04/19 03:37:59;;;;;;;61.65;38.20;;;205.30;2252.80;;;;;;5008567;28;20069;-77
2021/04/19 03:40:30;;;;;;;66.10;39.58;;;205.20;2252.80;;;;;;5023869;28;20018;-77
2021/04/19 03:43:06;;;;;;;59.75;36.92;;;205.30;2252.80;;;;;;5023826;28;20494;-77
2021/04/19 03:45:35;;;;;;;63.22;39.92;;;205.30;2252.80;;;;;;5025626;28;20025;-77
2021/04/19 03:48:03;;;;;;;60.10;39.65;;;205.20;2252.80;;;;;;5023854;28;20037;-77
2021/04/19 03:50:29;;;;;;;60.20;39.42;;;205.20;2252.80;;;;;;5008487;28;20470;-77
2021/04/19 03:52:57;;;;;;;59.53;37.85;;;205.20;2252.80;;;;;;5008156;28;20021;-76
2021/04/19 03:55:23;;;;;;;63.53;38.45;;;205.40;2252.80;;;;;;5005973;28;20057;-77
2021/04/19 03:57:50;;;;;;;54.97;35.88;;;205.40;2252.80;;;;;;5005888;28;20124;-77
2021/04/19 04:00:19;;;;;;;64.63;36.72;;;205.30;2252.80;;;;;;5025911;28;20546;-77
2021/04/19 04:02:50;;;;;;;52.92;36.10;;;205.40;2252.80;;;;;;5005146;28;20302;-78
2021/04/19 04:05:16;;;;;;;64.25;38.22;;;205.70;2252.80;;;;;;5025669;28;20096;-77
2021/04/19 04:07:43;;;;;;;63.72;37.55;;;205.40;2252.80;;;;;;5023788;28;20014;-77
2021/04/19 04:10:10;;;;;;;66.88;40.38;;;205.40;2252.80;;;;;;5022779;28;20030;-77
2021/04/19 04:12:36;;;;;;;63.60;41.20;;;205.10;2252.80;;;;;;5025566;28;20025;-77
2021/04/19 04:15:03;;;;;;;74.65;44.97;;;204.90;2252.80;;;;;;5023423;28;20108;-77
2021/04/19 04:17:30;;;;;;;71.90;43.30;;;204.90;2252.80;;;;;;5024716;28;20120;-76
2021/04/19 04:19:56;;;;;;;67.60;42.00;;;204.90;2252.80;;;;;;5022715;28;20037;-78
2021/04/19 04:22:22;;;;;;;;;;;180.10;2252.80;;;;;;5024133;28;20018;-78
2021/04/19 04:24:49;;;;;;;66.85;39.80;;;180.00;2252.80;;;;;;5005608;28;19991;-77
2021/04/19 04:27:15;;;;;;;67.65;41.95;;;180.10;2252.80;;;;;;5025746;28;20065;-76
2021/04/19 04:29:40;;;;;;;;;;;204.90;2252.80;;;;;;5021227;28;20025;-77
2021/04/19 04:32:07;;;;;;;64.40;39.10;;;204.90;2252.80;;;;;;5006413;28;19911;-77
2021/04/19 04:34:33;;;;;;;65.85;40.88;;;204.90;2252.80;;;;;;5022078;28;20021;-77
2021/04/19 04:37:00;;;;;;;68.43;41.65;;;205.00;2252.80;;;;;;5025644;28;20022;-78
2021/04/19 04:39:26;;;;;;;67.35;42.60;;;205.10;2252.80;;;;;;5022588;28;20470;-79
2021/04/19 04:41:51;;;;;;;;;;;205.30;2252.80;;;;;;5007670;28;20088;-77
2021/04/19 04:44:37;;;;;;;68.93;40.60;;;205.60;2252.80;;;;;;5002803;28;19921;-77
2021/04/19 04:47:19;;;;;;;66.80;39.08;;;205.40;2252.80;;;;;;5013812;28;20383;-78
2021/04/19 04:50:33;;;;;;;73.40;43.90;;;205.30;2252.80;;;;;;5016614;28;20021;-79
2021/04/19 04:53:05;;;;;;;77.13;43.70;;;205.00;2252.80;;;;;;4946690;29;20031;-79
2021/04/19 04:55:32;;;;;;;75.45;44.80;;;205.00;2252.80;;;;;;4926741;29;20036;-79
2021/04/19 04:58:00;;;;;;;67.88;43.50;;;204.80;2252.80;;;;;;4925216;29;20397;-77
2021/04/19 05:00:27;;;;;;;72.05;41.58;;;204.90;2252.80;;;;;;4921854;29;20394;-78
2021/04/19 05:02:53;;;;;;;63.25;39.85;;;205.00;2252.80;;;;;;4915562;29;20494;-79
2021/04/19 05:05:19;;;;;;;54.40;37.45;;;205.00;2252.80;;;;;;4915767;29;20028;-78
2021/04/19 05:07:46;;;;;;;;;;;205.00;2252.80;;;;;;4918953;29;20106;-79
2021/04/19 05:10:13;;;;;;;55.13;35.22;;;205.10;2252.80;;;;;;4934365;29;19917;-78
2021/04/19 05:12:39;;;;;;;58.47;36.53;;;205.10;2252.80;;;;;;4934542;29;20103;-78
2021/04/19 05:15:09;;;;;;;53.33;33.97;;;205.20;2252.80;;;;;;4934221;29;20409;-79
2021/04/19 05:17:36;;;;;;;58.88;33.47;;;205.00;2252.80;;;;;;4934386;29;20079;-79
2021/04/19 05:20:04;;;;;;;52.17;32.90;;;205.20;2252.80;;;;;;4918698;28;20559;-78
2021/04/19 05:22:30;;;;;;;52.88;33.90;;;205.30;2252.80;;;;;;4934430;29;20031;-78
2021/04/19 05:24:55;;;;;;;;;;;205.40;2252.80;;;;;;4934934;29;20042;-78
2021/04/19 05:27:21;;;;;;;51.72;31.60;;;205.20;2252.80;;;;;;4993595;28;19996;-77
2021/04/19 05:29:47;;;;;;;;;;;205.50;2252.80;;;;;;5014557;28;20014;-80
2021/04/19 05:32:13;;;;;;;49.15;31.02;;;205.60;2252.80;;;;;;4996072;28;19948;-78
2021/04/19 05:34:39;;;;;;;53.17;31.75;;;205.70;2252.80;;;;;;4995482;28;20041;-78
2021/04/19 05:37:06;;;;;;;49.78;32.95;;;230.50;2252.80;;;;;;4995934;28;20076;-78
2021/04/19 05:39:34;;;;;;;52.67;31.48;;;230.60;2252.80;;;;;;5013540;28;20048;-77
2021/04/19 05:42:04;;;;;;;50.58;32.30;;;230.80;2252.80;;;;;;5012904;28;20057;-78
2021/04/19 05:44:34;;;;;;;58.03;33.88;;;230.90;2252.80;;;;;;5013322;28;20041;-77
2021/04/19 05:47:00;;;;;;;52.42;31.52;;;230.80;2252.80;;;;;;5018702;28;20028;-79
2021/04/19 05:49:26;;;;;;;;;;;230.70;2252.80;;;;;;5009555;28;20440;-78
2021/04/19 05:51:58;;;;;;;51.65;32.85;;;230.60;2252.80;;;;;;5021554;28;19959;-77
2021/04/19 05:54:24;;;;;;;51.92;33.55;;;230.70;2252.80;;;;;;5020926;28;20076;-79
2021/04/19 05:57:02;;;;;;;50.67;32.53;;;230.60;2252.80;;;;;;5021479;28;20486;-79
2021/04/19 06:00:05;;;;;;;61.95;34.58;;;230.50;2252.80;;;;;;5007216;28;20034;-84
2021/04/19 06:02:41;;;;;;;50.97;31.45;;;230.50;2252.80;;;;;;4947734;29;20062;-78
2021/04/19 06:05:20;;;;;;;56.33;34.58;;;230.50;2252.80;;;;;;4952639;29;20061;-78
2021/04/19 06:08:01;;;;;;;52.05;32.22;;;230.50;2252.80;;;;;;4953082;29;20040;-79
2021/04/19 06:10:43;;;;;;;56.35;35.72;;;230.50;2252.80;;;;;;4947113;29;20507;-83
2021/04/19 06:13:11;;;;;;;51.92;32.17;;;230.50;2252.80;;;;;;4933700;29;20119;-77
2021/04/19 06:15:38;;;;;;;53.28;30.90;;;230.50;2252.80;;;;;;4929518;29;20119;-77
2021/04/19 06:18:04;;;;;;;55.20;36.95;;;230.60;2252.80;;;;;;4916160;29;20395;-78
2021/04/19 06:20:29;;;;;;;;;;;230.80;2252.80;;;;;;4915144;29;20035;-77
2021/04/19 06:22:57;;;;;;;45.45;29.52;;;230.90;2252.80;;;;;;4914445;29;19907;-79
2021/04/19 06:25:23;;;;;;;41.20;27.80;;;231.00;2252.80;;;;;;4914276;29;20160;-76
2021/04/19 06:27:58;;;;;;;48.33;30.70;;;231.10;2252.80;;;;;;4914341;29;20036;-80
2021/04/19 06:30:29;;;;;;;47.70;30.08;;;231.20;2252.80;;;;;;4914464;29;20036;-80
2021/04/19 06:32:55;;;;;;;45.90;29.25;;;231.30;2252.80;;;;;;4898593;29;20514;-80
2021/04/19 06:35:21;;;;;;;55.33;34.08;;;231.20;2252.80;;;;;;4919417;28;20028;-79
2021/04/19 06:37:51;;;;;;;;;;;256.10;2252.80;;;;;;5013238;28;20399;-78
2021/04/19 06:40:17;;;;;;;41.30;26.77;;;256.20;2252.80;;;;;;5012936;28;19905;-80
2021/04/19 06:42:43;;;;;;;93.80;46.13;;;256.30;2252.80;;;;;;5012616;28;20053;-77
2021/04/19 06:45:11;;;;;;;;;;;256.50;2252.80;;;;;;5013343;28;20033;-77
2021/04/19 06:47:39;;;;;;;47.17;29.95;;;256.60;2252.80;;;;;;5012266;28;20371;-78
2021/04/19 06:50:06;;;;;;;31.70;19.00;;;256.60;2252.80;;;;;;5019667;28;20060;-77
2021/04/19 06:52:32;;;;;;;29.30;17.73;;;256.90;2252.80;;;;;;5020687;28;20029;-79
2021/04/19 06:54:58;;;;;;;27.08;17.98;;;281.60;2278.40;;;;;;5024493;28;20033;-78
2021/04/19 06:57:28;;;;;;;27.55;18.77;;;281.60;2278.40;;;;;;5012211;28;20057;-79
2021/04/19 06:59:56;;;;;;;25.50;17.60;;;281.60;2278.40;;;;;;5004446;28;20048;-82
2021/04/19 07:02:25;;;;;;;27.33;17.55;;;281.60;2278.40;;;;;;5001252;28;20041;-86
2021/04/19 07:04:55;;;;;;;29.90;18.40;;;281.70;2278.40;;;;;;4995209;28;20361;-82
2021/04/19 07:07:34;;;;;;;22.20;15.23;;;281.70;2278.40;;;;;;4994823;28;20423;-77
2021/04/19 07:10:03;;;;;;;17.98;11.75;;;281.70;2252.80;;;;;;5021031;28;20112;-78
2021/04/19 07:12:33;;;;;;;18.70;12.68;;;281.80;2201.60;;;;;;5011970;28;20022;-76
2021/04/19 07:15:03;;;;;;;19.08;12.27;;;281.80;2227.20;;;;;;5027501;28;20049;-78
2021/04/19 07:17:30;;;;;;;19.38;12.90;;;281.80;2201.60;;;;;;5031757;28;20040;-78
2021/04/19 07:19:56;;;;;;;18.58;12.48;;;281.90;2201.60;;;;;;5031856;28;20383;-77
2021/04/19 07:22:23;;;;;;;24.20;14.60;;;282.00;2176.00;;;;;;5031553;28;20026;-79
2021/04/19 07:24:49;;;;;;;34.38;14.95;;;282.00;2227.20;;;;;;5031560;28;20028;-78
2021/04/19 07:27:16;;;;;;;21.08;14.05;;;282.10;2252.80;;;;;;5013671;28;20022;-78
2021/04/19 07:29:42;;;;;;;22.00;14.85;;;281.90;2252.80;;;;;;5031722;28;20029;-77
2021/04/19 07:32:08;;;;;;;20.50;13.10;;;282.00;2227.20;;;;;;5012874;28;20060;-79
2021/04/19 07:34:35;;;;;;;22.20;14.68;;;281.80;2227.20;;;;;;5014055;28;20030;-79
2021/04/19 07:37:06;;;;;;;18.75;13.05;;;281.80;2201.60;;;;;;5031504;28;20021;-78
2021/04/19 07:39:35;;;;;;;21.70;11.95;;;281.90;2201.60;;;;;;5031484;28;20033;-77
2021/04/19 07:42:06;;;;;;;22.88;14.15;;;281.90;2201.60;;;;;;5031814;28;20052;-77
2021/04/19 07:44:39;;;;;;;17.77;13.40;;;282.00;2201.60;;;;;;5031318;28;20120;-79
2021/04/19 07:47:19;;;;;;;20.70;14.85;;;281.90;2201.60;;;;;;5032022;28;20021;-81
2021/04/19 07:50:14;;;;;;;22.08;14.68;;;281.90;2201.60;;;;;;5031527;28;20423;-80
2021/04/19 07:53:02;;;;;;;21.63;15.68;;;281.90;2201.60;;;;;;5031280;28;20028;-79
2021/04/19 07:55:39;;;;;;;20.90;14.48;;;281.90;2201.60;;;;;;5014442;28;20104;-79
2021/04/19 07:58:07;;;;;;;20.23;13.77;;;281.90;2201.60;;;;;;5014091;28;20033;-77
2021/04/19 08:00:33;;;;;;;21.05;13.48;;;282.00;2176.00;;;;;;5031772;28;20013;-80
2021/04/19 08:03:10;;;;;;;19.95;13.93;;;282.00;2176.00;;;;;;5031782;28;20120;-77
2021/04/19 08:05:51;;;;;;;23.42;14.15;;;282.00;2201.60;;;;;;5014944;28;20383;-80
2021/04/19 08:08:18;;;;;;;23.38;15.48;;;282.00;2176.00;;;;;;5010352;28;20021;-79
2021/04/19 08:10:46;;;;;;;22.83;14.93;;;282.10;2201.60;;;;;;5023607;28;20021;-77
2021/04/19 08:13:14;;;;;;;23.10;14.02;;;282.10;2176.00;;;;;;5017869;28;20565;-79
2021/04/19 08:15:42;;;;;;;19.30;12.90;;;282.10;2150.40;;;;;;4997509;28;20096;-76
2021/04/19 08:18:19;;;;;;;19.48;14.40;;;282.20;2150.40;;;;;;5015491;28;20076;-81
2021/04/19 08:20:53;;;;;;;25.45;16.63;;;282.00;2176.00;;;;;;5015094;28;20105;-81
2021/04/19 08:23:20;;;;;;;23.17;16.20;;;282.20;2176.00;;;;;;5015075;28;20382;-77
2021/04/19 08:25:49;;;;;;;19.88;14.00;;;282.40;2201.60;;;;;;5014906;28;20037;-77
2021/04/19 08:28:19;;;;;;;19.40;13.57;;;282.20;2150.40;;;;;;5015057;28;20084;-77
2021/04/19 08:30:47;;;;;;;19.48;13.43;;;282.30;2150.40;;;;;;5015543;28;20048;-83
2021/04/19 08:33:14;;;;;;;18.85;12.90;;;282.20;2176.00;;;;;;5031464;28;20030;-80
2021/04/19 08:35:41;;;;;;;21.73;15.50;;;282.30;2176.00;;;;;;5023774;28;20028;-78
2021/04/19 08:38:07;;;;;;;21.42;16.38;;;282.40;2176.00;;;;;;5011428;28;20041;-82
2021/04/19 08:40:37;;;;;;;26.65;16.73;;;282.40;2176.00;;;;;;5015114;28;20026;-78
2021/04/19 08:43:08;;;;;;;21.02;15.02;;;282.50;2150.40;;;;;;5015067;28;20021;-80
2021/04/19 08:45:37;;;;;;;19.80;13.18;;;307.20;2176.00;;;;;;5015002;28;20092;-76
2021/04/19 08:48:11;;;;;;;19.20;14.60;;;282.50;2099.20;;;;;;5015635;28;20507;-83
2021/04/19 08:50:38;;;;;;;15.57;12.45;;;282.50;2099.20;;;;;;4996736;28;20030;-81
2021/04/19 08:53:08;;;;;;;21.20;15.38;;;307.20;2124.80;;;;;;5014937;28;20388;-81
2021/04/19 08:55:35;;;;;;;21.55;15.13;;;307.20;2124.80;;;;;;5014723;28;20443;-78
2021/04/19 08:58:08;;;;;;;24.90;16.60;;;307.20;2124.80;;;;;;5015145;28;20038;-78
2021/04/19 09:00:34;;;;;;;23.60;16.98;;;307.30;2150.40;;;;;;5015202;28;20117;-83
2021/04/19 09:03:00;;;;;;;24.60;15.75;;;307.30;2150.40;;;;;;4997018;28;20030;-79
2021/04/19 09:05:26;;;;;;;;;;;307.30;2124.80;;;;;;5015578;28;20022;-83
2021/04/19 09:08:02;;;;;;;22.70;13.57;;;307.40;2124.80;;;;;;5014693;28;19912;-84
2021/04/19 09:10:46;;;;;;;;;;;307.30;2099.20;;;;;;5017452;28;20021;-77
2021/04/19 09:13:39;;;;;;;24.90;17.08;;;307.40;2073.60;;;;;;5030786;28;19920;-82
2021/04/19 09:16:20;;;;;;;24.27;16.10;;;307.30;2073.60;;;;;;5014298;28;20100;-84
2021/04/19 09:18:58;;;;;;;22.45;14.55;;;307.40;2099.20;;;;;;5007822;28;20073;-87
2021/04/19 09:21:42;;;;;;;21.73;16.10;;;307.50;2073.60;;;;;;5034343;28;20022;-79
2021/04/19 09:24:11;;;;;;;22.27;16.25;;;307.60;2073.60;;;;;;5016111;28;20045;-80
2021/04/19 09:26:55;;;;;;;21.95;15.10;;;307.60;2048.00;;;;;;5016746;28;20021;-81
2021/04/19 09:29:29;;;;;;;18.80;12.82;;;307.70;2073.60;;;;;;5002093;28;20109;-81
2021/04/19 09:32:00;;;;;;;19.98;14.95;;;307.80;2048.00;;;;;;5027304;28;20049;-80
2021/04/19 09:34:46;;;;;;;17.88;13.63;;;307.80;2048.00;;;;;;5015683;28;20042;-79
2021/04/19 09:37:17;;;;;;;20.58;13.18;;;308.00;2022.40;;;;;;5028140;28;20021;-80
2021/04/19 09:39:53;;;;;;;15.73;12.23;;;307.90;1996.80;;;;;;5022459;28;20406;-80
2021/04/19 09:43:06;;;;;;;19.17;14.27;;;307.90;1971.20;;;;;;5033759;28;20025;-80
2021/04/19 09:45:41;;;;;;;19.58;14.38;;;308.10;1971.20;;;;;;5000785;28;20041;-80
2021/04/19 09:48:28;;;;;;;17.50;13.40;;;308.10;2022.40;;;;;;5003660;28;20037;-82
2021/04/19 09:50:56;;;;;;;17.88;12.30;;;308.10;1996.80;;;;;;5007819;28;20052;-79
2021/04/19 09:53:22;;;;;;;17.13;12.02;;;332.80;1971.20;;;;;;5009743;28;20119;-80
2021/04/19 09:55:49;;;;;;;14.77;11.20;;;308.10;1920.00;;;;;;5002044;28;20050;-80
2021/04/19 09:58:16;;;;;;;19.77;12.60;;;332.80;1971.20;;;;;;5012487;28;20088;-78
2021/04/19 10:00:46;;;;;;;15.98;11.27;;;332.90;1971.20;;;;;;5023871;28;20050;-79
2021/04/19 10:03:12;;;;;;;15.80;11.40;;;332.90;1971.20;;;;;;5004112;28;20037;-79
2021/04/19 10:05:40;;;;;;;28.70;19.33;;;333.00;1920.00;;;;;;5025865;28;20048;-79
2021/04/19 10:08:08;;;;;;;12.95;10.07;;;333.20;1894.40;;;;;;5028455;28;20025;-81
2021/04/19 10:10:35;;;;;;;12.57;8.43;;;333.10;1868.80;;;;;;5024624;28;20018;-80
2021/04/19 10:13:01;;;;;;;13.18;9.48;;;333.20;1868.80;;;;;;5015569;28;20025;-76
2021/04/19 10:15:27;;;;;;;20.25;14.65;;;333.40;1817.60;;;;;;5032118;28;20144;-81
2021/04/19 10:17:53;;;;;;;30.88;21.90;;;333.70;1920.00;;;;;;5032180;28;20038;-79
2021/04/19 10:20:22;;;;;;;27.38;17.88;;;358.80;1868.80;;;;;;5032191;28;20040;-79
2021/04/19 10:23:09;;;;;;;22.77;16.05;;;359.10;1817.60;;;;;;5033697;28;20021;-82
2021/04/19 10:25:45;;;;;;;19.17;14.52;;;384.30;1792.00;;;;;;5015209;28;20021;-81
2021/04/19 10:28:11;;;;;;;22.55;16.20;;;384.60;1715.20;;;;;;5032690;28;20026;-82
2021/04/19 10:30:37;;;;;;;15.52;12.05;;;409.60;1715.20;;;;;;5011677;28;20026;-81
2021/04/19 10:33:03;;;;;;;53.33;28.17;;;409.70;1664.00;;;;;;5000047;28;20125;-77
2021/04/19 10:35:34;;;;;;;25.27;17.58;;;384.80;1689.60;;;;;;5012701;28;20101;-80
2021/04/19 10:38:00;;;;;;;17.55;13.15;;;409.60;1689.60;;;;;;5020657;28;20029;-79
2021/04/19 10:40:27;;;;;;;16.50;12.57;;;384.80;1587.20;;;;;;5000406;28;20033;-76
2021/04/19 10:43:01;;;;;;;14.85;11.50;;;384.30;1740.80;;;;;;5004905;28;20045;-78
2021/04/19 10:45:28;;;;;;;15.82;11.63;;;384.00;1740.80;;;;;;5022386;28;20025;-79
2021/04/19 10:48:24;;;;;;;14.60;10.82;;;384.60;1740.80;;;;;;5021279;28;20026;-78
2021/04/19 10:50:51;;;;;;;17.00;10.68;;;384.40;1664.00;;;;;;5022939;28;20025;-77
2021/04/19 10:53:35;;;;;;;17.70;10.45;;;384.10;1689.60;;;;;;5009263;28;20479;-79
2021/04/19 10:56:02;;;;;;;16.00;11.15;;;359.20;1766.40;;;;;;5032209;28;20061;-78
2021/04/19 10:58:36;;;;;;;16.33;10.38;;;359.00;1766.40;;;;;;5013957;28;20120;-77
2021/04/19 11:01:02;;;;;;;18.20;12.93;;;359.00;1766.40;;;;;;5031729;28;20025;-78
2021/04/19 11:03:38;;;;;;;15.93;11.70;;;359.10;1766.40;;;;;;5030532;28;20033;-80
2021/04/19 11:06:05;;;;;;;17.40;11.37;;;384.30;1740.80;;;;;;5015011;28;20018;-82
2021/04/19 11:08:49;;;;;;;24.88;16.40;;;409.60;1715.20;;;;;;5031207;28;20029;-83
2021/04/19 11:11:25;;;;;;;18.08;12.93;;;410.20;1664.00;;;;;;5032136;28;20035;-83
2021/04/19 11:13:52;;;;;;;14.60;10.50;;;384.90;1689.60;;;;;;5002921;28;20476;-82
2021/04/19 11:16:22;;;;;;;17.48;12.30;;;384.70;1740.80;;;;;;5032031;28;20216;-81
2021/04/19 11:18:50;;;;;;;19.02;11.07;;;384.80;1715.20;;;;;;4993999;28;20050;-83
2021/04/19 11:21:35;;;;;;;16.90;11.10;;;384.90;1715.20;;;;;;4999621;28;20478;-79
2021/04/19 11:24:15;;;;;;;15.02;10.25;;;384.90;1664.00;;;;;;5005754;28;20029;-80
2021/04/19 11:26:42;;;;;;;15.50;11.05;;;384.80;1664.00;;;;;;5022518;28;20029;-78
2021/04/19 11:29:08;;;;;;;12.82;10.10;;;409.80;1715.20;;;;;;5028747;28;20017;-79
2021/04/19 11:31:46;;;;;;;14.65;10.15;;;409.90;1612.80;;;;;;5023135;28;20013;-80
2021/04/19 11:34:14;;;;;;;13.45;9.88;;;410.50;1612.80;;;;;;5026061;28;20096;-79
2021/04/19 11:36:42;;;;;;;16.08;11.75;;;435.30;1561.60;;;;;;5020507;28;20444;-79
2021/04/19 11:39:13;;;;;;;15.80;11.13;;;435.20;1536.00;;;;;;4998365;28;20448;-80
2021/04/19 11:41:39;;;;;;;15.45;8.45;;;410.50;1587.20;;;;;;5014907;28;20025;-80
2021/04/19 11:44:05;;;;;;;12.45;8.07;;;384.90;1536.00;;;;;;5015754;28;20026;-80
2021/04/19 11:46:32;;;;;;;11.77;8.68;;;384.70;1484.80;;;;;;5015866;28;20026;-80
2021/04/19 11:48:58;;;;;;;15.93;11.13;;;384.60;1536.00;;;;;;5016212;28;20079;-79
2021/04/19 11:51:25;;;;;;;19.05;11.38;;;384.30;1664.00;;;;;;5015642;28;20030;-78
2021/04/19 11:53:51;;;;;;;21.65;12.75;;;384.10;1689.60;;;;;;5018274;28;20121;-79
2021/04/19 11:56:18;;;;;;;19.20;12.25;;;384.10;1664.00;;;;;;4997960;28;20479;-79
2021/04/19 11:58:46;;;;;;;13.98;9.38;;;359.20;1740.80;;;;;;4997852;28;20495;-79
2021/04/19 12:01:14;;;;;;;13.38;9.43;;;359.20;1766.40;;;;;;4996672;28;20064;-79
2021/04/19 12:03:41;;;;;;;15.63;10.68;;;359.00;1689.60;;;;;;5010775;28;20029;-79
2021/04/19 12:06:08;;;;;;;15.63;12.07;;;359.00;1715.20;;;;;;5016556;28;20068;-79
2021/04/19 12:08:35;;;;;;;16.85;12.15;;;359.10;1792.00;;;;;;5014919;28;20029;-79
2021/04/19 12:11:02;;;;;;;16.05;11.00;;;358.90;1766.40;;;;;;5024189;28;20535;-77
2021/04/19 12:13:28;;;;;;;14.57;9.57;;;358.90;1740.80;;;;;;5041398;28;20132;-77
2021/04/19 12:15:54;;;;;;;14.35;9.65;;;358.90;1689.60;;;;;;5048486;28;20045;-79
2021/04/19 12:18:23;;;;;;;14.85;9.63;;;358.90;1715.20;;;;;;5016624;28;20048;-81
2021/04/19 12:20:51;;;;;;;14.90;9.68;;;358.70;1715.20;;;;;;5026254;28;20021;-82